sensor_id;sensor_type;location;lat;lon;timestamp;pressure;altitude;pressure_sealevel;temperature;humidity
54918;BME280;40818;50.562;7.454;2024-02-04T00:05:26;98529.75;;;7.62;100.00
54918;BME280;40818;50.562;7.454;2024-02-04T00:15:32;98521.03;;;7.65;100.00
54918;BME280;40818;50.562;7.454;2024-02-04T00:25:35;98527.97;;;7.64;100.00
54918;BME280;40818;50.562;7.454;2024-02-04T00:35:41;98530.47;;;7.66;100.00
54918;BME280;40818;50.562;7.454;2024-02-04T00:45:45;98527.91;;;7.66;100.00
54918;BME280;40818;50.562;7.454;2024-02-04T00:55:51;98521.25;;;7.60;100.00
54918;BME280;40818;50.562;7.454;2024-02-04T01:05:54;98514.59;;;7.55;100.00
54918;BME280;40818;50.562;7.454;2024-02-04T01:16:01;98511.47;;;7.46;100.00
54918;BME280;40818;50.562;7.454;2024-02-04T01:26:05;98497.06;;;7.41;100.00
54918;BME280;40818;50.562;7.454;2024-02-04T01:36:11;98518.88;;;7.33;100.00
54918;BME280;40818;50.562;7.454;2024-02-04T01:46:14;98523.13;;;7.34;100.00
54918;BME280;40818;50.562;7.454;2024-02-04T01:56:21;98503.66;;;7.26;100.00
54918;BME280;40818;50.562;7.454;2024-02-04T02:06:24;98495.78;;;7.29;100.00
54918;BME280;40818;50.562;7.454;2024-02-04T02:16:32;98476.94;;;7.27;100.00
54918;BME280;40818;50.562;7.454;2024-02-04T02:26:38;98479.53;;;7.27;100.00
54918;BME280;40818;50.562;7.454;2024-02-04T02:36:44;98471.59;;;7.31;100.00
54918;BME280;40818;50.562;7.454;2024-02-04T02:46:51;98468.16;;;7.31;100.00
54918;BME280;40818;50.562;7.454;2024-02-04T02:56:55;98475.91;;;7.31;100.00
54918;BME280;40818;50.562;7.454;2024-02-04T03:07:01;98467.25;;;7.32;100.00
54918;BME280;40818;50.562;7.454;2024-02-04T03:17:05;98460.22;;;7.35;100.00
54918;BME280;40818;50.562;7.454;2024-02-04T03:27:11;98457.34;;;7.43;100.00
54918;BME280;40818;50.562;7.454;2024-02-04T03:37:14;98462.50;;;7.43;100.00
54918;BME280;40818;50.562;7.454;2024-02-04T03:47:20;98463.34;;;7.44;100.00
54918;BME280;40818;50.562;7.454;2024-02-04T03:57:24;98455.66;;;7.42;100.00
54918;BME280;40818;50.562;7.454;2024-02-04T04:07:30;98459.06;;;7.43;100.00
54918;BME280;40818;50.562;7.454;2024-02-04T04:17:33;98456.41;;;7.44;100.00
54918;BME280;40818;50.562;7.454;2024-02-04T04:27:39;98456.41;;;7.44;100.00
54918;BME280;40818;50.562;7.454;2024-02-04T04:37:43;98472.56;;;7.49;100.00
54918;BME280;40818;50.562;7.454;2024-02-04T04:47:48;98454.50;;;7.49;100.00
54918;BME280;40818;50.562;7.454;2024-02-04T04:57:52;98449.31;;;7.49;100.00
54918;BME280;40818;50.562;7.454;2024-02-04T05:07:58;98467.41;;;7.49;100.00
54918;BME280;40818;50.562;7.454;2024-02-04T05:18:02;98475.97;;;7.51;100.00
54918;BME280;40818;50.562;7.454;2024-02-04T05:28:08;98466.31;;;7.55;100.00
54918;BME280;40818;50.562;7.454;2024-02-04T05:38:12;98461.97;;;7.56;100.00
54918;BME280;40818;50.562;7.454;2024-02-04T05:48:18;98448.28;;;7.54;100.00
54918;BME280;40818;50.562;7.454;2024-02-04T05:58:21;98449.13;;;7.54;100.00
54918;BME280;40818;50.562;7.454;2024-02-04T06:08:27;98452.63;;;7.53;100.00
54918;BME280;40818;50.562;7.454;2024-02-04T06:18:31;98448.44;;;7.50;100.00
54918;BME280;40818;50.562;7.454;2024-02-04T06:28:37;98440.63;;;7.52;100.00
54918;BME280;40818;50.562;7.454;2024-02-04T06:38:41;98436.09;;;7.57;100.00
54918;BME280;40818;50.562;7.454;2024-02-04T06:48:47;98431.75;;;7.58;100.00
54918;BME280;40818;50.562;7.454;2024-02-04T06:58:50;98439.38;;;7.61;100.00
54918;BME280;40818;50.562;7.454;2024-02-04T07:08:56;98440.09;;;7.64;100.00
54918;BME280;40818;50.562;7.454;2024-02-04T07:18:59;98437.44;;;7.66;100.00
54918;BME280;40818;50.562;7.454;2024-02-04T07:29:05;98441.06;;;7.62;100.00
54918;BME280;40818;50.562;7.454;2024-02-04T07:39:09;98416.19;;;7.59;100.00
54918;BME280;40818;50.562;7.454;2024-02-04T07:49:15;98411.75;;;7.63;100.00
54918;BME280;40818;50.562;7.454;2024-02-04T07:59:18;98418.47;;;7.67;100.00
54918;BME280;40818;50.562;7.454;2024-02-04T08:09:25;98423.50;;;7.70;100.00
54918;BME280;40818;50.562;7.454;2024-02-04T08:19:28;98436.41;;;7.70;100.00
54918;BME280;40818;50.562;7.454;2024-02-04T08:29:34;98429.19;;;7.78;100.00
54918;BME280;40818;50.562;7.454;2024-02-04T08:39:37;98442.03;;;7.80;100.00
54918;BME280;40818;50.562;7.454;2024-02-04T08:49:43;98431.34;;;7.88;100.00
54918;BME280;40818;50.562;7.454;2024-02-04T08:59:47;98429.69;;;7.86;100.00
54918;BME280;40818;50.562;7.454;2024-02-04T09:09:54;98424.53;;;8.06;100.00
54918;BME280;40818;50.562;7.454;2024-02-04T09:19:57;98414.75;;;8.12;100.00
54918;BME280;40818;50.562;7.454;2024-02-04T09:30:04;98411.84;;;8.20;100.00
54918;BME280;40818;50.562;7.454;2024-02-04T09:40:09;98433.94;;;8.27;100.00
54918;BME280;40818;50.562;7.454;2024-02-04T09:50:15;98432.53;;;8.39;100.00
54918;BME280;40818;50.562;7.454;2024-02-04T10:00:19;98440.28;;;8.39;100.00
54918;BME280;40818;50.562;7.454;2024-02-04T10:10:25;98446.84;;;8.48;100.00
54918;BME280;40818;50.562;7.454;2024-02-04T10:20:30;98443.00;;;8.57;100.00
54918;BME280;40818;50.562;7.454;2024-02-04T10:30:37;98433.84;;;8.49;100.00
54918;BME280;40818;50.562;7.454;2024-02-04T10:40:41;98422.38;;;8.55;100.00
54918;BME280;40818;50.562;7.454;2024-02-04T10:50:47;98414.53;;;8.76;100.00
54918;BME280;40818;50.562;7.454;2024-02-04T11:00:52;98400.84;;;8.91;100.00
54918;BME280;40818;50.562;7.454;2024-02-04T11:10:59;98402.91;;;9.19;100.00
54918;BME280;40818;50.562;7.454;2024-02-04T11:31:47;98372.13;;;9.31;100.00
54918;BME280;40818;50.562;7.454;2024-02-04T11:41:50;98373.19;;;9.27;100.00
54918;BME280;40818;50.562;7.454;2024-02-04T11:51:57;98362.78;;;9.11;100.00
54918;BME280;40818;50.562;7.454;2024-02-04T12:02:05;98358.25;;;9.14;100.00
54918;BME280;40818;50.562;7.454;2024-02-04T12:12:12;98347.16;;;9.12;100.00
54918;BME280;40818;50.562;7.454;2024-02-04T12:22:15;98326.81;;;9.04;100.00
54918;BME280;40818;50.562;7.454;2024-02-04T12:32:22;98325.16;;;9.03;100.00
54918;BME280;40818;50.562;7.454;2024-02-04T12:42:26;98334.72;;;9.01;100.00
54918;BME280;40818;50.562;7.454;2024-02-04T12:52:35;98322.94;;;8.96;100.00
54918;BME280;40818;50.562;7.454;2024-02-04T13:02:41;98311.75;;;8.95;100.00
54918;BME280;40818;50.562;7.454;2024-02-04T13:12:57;98307.94;;;9.02;100.00
54918;BME280;40818;50.562;7.454;2024-02-04T13:23:01;98309.69;;;9.02;100.00
54918;BME280;40818;50.562;7.454;2024-02-04T13:33:08;98300.53;;;9.12;100.00
54918;BME280;40818;50.562;7.454;2024-02-04T13:43:11;98285.44;;;9.20;100.00
54918;BME280;40818;50.562;7.454;2024-02-04T13:53:18;98283.31;;;9.29;100.00
54918;BME280;40818;50.562;7.454;2024-02-04T14:03:21;98272.66;;;9.17;100.00
54918;BME280;40818;50.562;7.454;2024-02-04T14:13:27;98284.22;;;9.10;100.00
54918;BME280;40818;50.562;7.454;2024-02-04T14:23:33;98300.91;;;9.04;100.00
54918;BME280;40818;50.562;7.454;2024-02-04T14:33:39;98292.47;;;9.01;100.00
54918;BME280;40818;50.562;7.454;2024-02-04T14:43:43;98287.53;;;8.96;100.00
54918;BME280;40818;50.562;7.454;2024-02-04T14:53:49;98290.16;;;8.95;100.00
54918;BME280;40818;50.562;7.454;2024-02-04T15:03:52;98289.44;;;8.93;100.00
54918;BME280;40818;50.562;7.454;2024-02-04T15:14:00;98288.50;;;8.94;100.00
54918;BME280;40818;50.562;7.454;2024-02-04T15:24:04;98271.38;;;8.91;100.00
54918;BME280;40818;50.562;7.454;2024-02-04T15:34:11;98278.53;;;8.86;100.00
54918;BME280;40818;50.562;7.454;2024-02-04T15:44:14;98282.03;;;8.85;100.00
54918;BME280;40818;50.562;7.454;2024-02-04T15:54:21;98275.31;;;8.81;100.00
54918;BME280;40818;50.562;7.454;2024-02-04T16:04:25;98271.75;;;8.83;100.00
54918;BME280;40818;50.562;7.454;2024-02-04T16:14:35;98265.91;;;8.80;100.00
54918;BME280;40818;50.562;7.454;2024-02-04T16:24:42;98268.63;;;8.77;100.00
54918;BME280;40818;50.562;7.454;2024-02-04T16:34:49;98280.56;;;8.79;100.00
54918;BME280;40818;50.562;7.454;2024-02-04T16:44:52;98269.47;;;8.77;100.00
54918;BME280;40818;50.562;7.454;2024-02-04T16:54:59;98252.41;;;8.73;100.00
54918;BME280;40818;50.562;7.454;2024-02-04T17:05:03;98249.13;;;8.69;100.00
54918;BME280;40818;50.562;7.454;2024-02-04T17:15:11;98235.66;;;8.63;100.00
54918;BME280;40818;50.562;7.454;2024-02-04T17:25:16;98222.59;;;8.66;100.00
54918;BME280;40818;50.562;7.454;2024-02-04T17:35:22;98226.81;;;8.67;100.00
54918;BME280;40818;50.562;7.454;2024-02-04T17:45:29;98232.00;;;8.67;100.00
54918;BME280;40818;50.562;7.454;2024-02-04T17:55:35;98243.41;;;8.63;100.00
54918;BME280;40818;50.562;7.454;2024-02-04T18:05:39;98236.59;;;8.62;100.00
54918;BME280;40818;50.562;7.454;2024-02-04T18:15:47;98236.78;;;8.57;100.00
54918;BME280;40818;50.562;7.454;2024-02-04T18:25:54;98225.84;;;8.52;100.00
54918;BME280;40818;50.562;7.454;2024-02-04T18:36:00;98221.81;;;8.46;100.00
54918;BME280;40818;50.562;7.454;2024-02-04T18:46:03;98212.28;;;8.47;100.00
54918;BME280;40818;50.562;7.454;2024-02-04T18:56:11;98210.66;;;8.44;100.00
54918;BME280;40818;50.562;7.454;2024-02-04T19:06:24;98208.94;;;8.45;100.00
54918;BME280;40818;50.562;7.454;2024-02-04T19:16:30;98222.78;;;8.44;100.00
54918;BME280;40818;50.562;7.454;2024-02-04T19:26:33;98211.72;;;8.40;100.00
54918;BME280;40818;50.562;7.454;2024-02-04T19:36:40;98216.72;;;8.43;100.00
54918;BME280;40818;50.562;7.454;2024-02-04T19:46:45;98221.09;;;8.43;100.00
54918;BME280;40818;50.562;7.454;2024-02-04T19:56:51;98250.38;;;8.43;100.00
54918;BME280;40818;50.562;7.454;2024-02-04T20:06:54;98243.91;;;8.34;100.00
54918;BME280;40818;50.562;7.454;2024-02-04T20:17:00;98256.00;;;8.34;100.00
54918;BME280;40818;50.562;7.454;2024-02-04T20:27:04;98251.81;;;8.31;100.00
54918;BME280;40818;50.562;7.454;2024-02-04T20:37:10;98254.63;;;8.27;100.00
54918;BME280;40818;50.562;7.454;2024-02-04T20:47:14;98255.81;;;8.19;100.00
54918;BME280;40818;50.562;7.454;2024-02-04T20:57:20;98240.28;;;8.19;100.00
54918;BME280;40818;50.562;7.454;2024-02-04T21:07:23;98244.09;;;8.12;100.00
54918;BME280;40818;50.562;7.454;2024-02-04T21:17:29;98213.34;;;8.06;100.00
54918;BME280;40818;50.562;7.454;2024-02-04T21:27:33;98210.69;;;8.08;100.00
54918;BME280;40818;50.562;7.454;2024-02-04T21:37:39;98211.38;;;8.11;100.00
54918;BME280;40818;50.562;7.454;2024-02-04T21:47:42;98209.72;;;8.10;100.00
54918;BME280;40818;50.562;7.454;2024-02-04T21:57:48;98202.16;;;8.06;100.00
54918;BME280;40818;50.562;7.454;2024-02-04T22:07:52;98217.75;;;8.04;100.00
54918;BME280;40818;50.562;7.454;2024-02-04T22:17:58;98211.81;;;8.02;100.00
54918;BME280;40818;50.562;7.454;2024-02-04T22:28:01;98204.25;;;7.97;100.00
54918;BME280;40818;50.562;7.454;2024-02-04T22:38:07;98201.84;;;7.94;100.00
54918;BME280;40818;50.562;7.454;2024-02-04T22:48:11;98213.78;;;7.97;100.00
54918;BME280;40818;50.562;7.454;2024-02-04T22:58:17;98207.78;;;7.96;100.00
54918;BME280;40818;50.562;7.454;2024-02-04T23:08:21;98226.94;;;7.92;100.00
54918;BME280;40818;50.562;7.454;2024-02-04T23:18:27;98208.91;;;7.91;100.00
54918;BME280;40818;50.562;7.454;2024-02-04T23:28:30;98204.78;;;7.86;100.00
54918;BME280;40818;50.562;7.454;2024-02-04T23:38:36;98216.03;;;7.85;100.00
54918;BME280;40818;50.562;7.454;2024-02-04T23:48:40;98208.28;;;7.85;100.00
54918;BME280;40818;50.562;7.454;2024-02-04T23:58:46;98218.47;;;7.89;100.00
